Time;durP1;ratioP1;P1;durP2;ratioP2;P2;SDS_P1;SDS_P2;PMS_P1;PMS_P2;Temp;Humidity;BMP_temperature;BMP_pressure;BME280_temperature;BME280_humidity;BME280_pressure;Samples;Min_cycle;Max_cycle;Signal;HPM_P1;HPM_P2
2022/10/01 00:01:42;;;;;;;;;;;;;;;16.67;74.91;99431.94;4241575;33;32589;-91
2022/10/01 00:04:15;;;;;;;;;;;;;;;16.57;75.23;99444.59;4226414;33;34355;-91
2022/10/01 00:06:43;;;;;;;;;;;;;;;16.80;73.75;99502.12;4229164;33;34928;-91
2022/10/01 00:09:18;;;;;;;;;;;;;;;16.64;74.16;99558.66;4228065;33;34508;-90
2022/10/01 00:11:47;;;;;;;;;;;;;;;16.21;76.02;99534.16;4243133;33;34465;-90
2022/10/01 00:14:24;;;;;;;;;;;;;;;15.73;78.83;99438.38;4226527;33;34512;-91
2022/10/01 00:16:58;;;;;;;;;;;;;;;16.16;77.15;99441.88;4224345;33;34605;-90
2022/10/01 00:19:29;;;;;;;;;;;;;;;16.24;76.94;99425.88;4233685;33;34687;-90
2022/10/01 00:22:01;;;;;;;;;;;;;;;16.12;77.61;99442.94;4225224;33;35203;-91
2022/10/01 00:24:29;;;;;;;;;;;;;;;16.29;76.73;99439.66;4244371;33;33601;-91
2022/10/01 00:27:01;;;;;;;;;;;;;;;16.40;76.68;99443.50;4224609;33;34038;-91
2022/10/01 00:29:31;;;;;;;;;;;;;;;16.50;76.09;99458.84;4226997;33;34649;-91
2022/10/01 00:32:02;;;;;;;;;;;;;;;16.69;74.66;99459.78;4222321;33;33879;-91
2022/10/01 00:34:32;;;;;;;;;;;;;;;16.42;75.87;99449.53;4243433;33;33823;-91
2022/10/01 00:37:02;;;;;;;;;;;;;;;16.48;76.25;99451.06;4224490;33;33546;-92
2022/10/01 00:39:31;;;;;;;;;;;;;;;16.46;75.99;99433.72;4220350;33;33979;-92
2022/10/01 00:44:34;;;;;;;;;;;;;;;16.80;74.91;99448.91;4219065;33;34453;-89
2022/10/01 00:47:11;;;;;;;;;;;;;;;16.57;75.70;99448.03;4245085;33;33382;-89
2022/10/01 00:49:48;;;;;;;;;;;;;;;16.65;75.76;99445.13;4227331;33;34910;-89
2022/10/01 00:52:18;;;;;;;;;;;;;;;16.56;75.86;99443.75;4239814;33;34602;-89
2022/10/01 00:54:58;;;;;;;;;;;;;;;16.80;74.99;99446.28;4220796;33;35321;-89
2022/10/01 00:57:28;;;;;;;;;;;;;;;16.90;74.32;99438.88;4239994;33;33734;-89
2022/10/01 01:00:00;;;;;;;;;;;;;;;16.62;75.59;99435.63;4221314;33;34806;-89
2022/10/01 01:02:31;;;;;;;;;;;;;;;16.52;75.81;99430.84;4225103;33;34821;-90
2022/10/01 01:05:01;;;;;;;;;;;;;;;16.63;75.50;99426.84;4239564;33;32957;-90
2022/10/01 01:07:35;;;;;;;;;;;;;;;16.64;75.44;99433.78;4228934;33;34044;-90
2022/10/01 01:10:04;;;;;;;;;;;;;;;16.79;75.13;99428.84;4221205;33;33824;-90
2022/10/01 01:12:40;;;;;;;;;;;;;;;16.84;74.77;99432.09;4231187;33;35500;-91
2022/10/01 01:15:16;;;;;;;;;;;;;;;16.85;74.75;99434.69;4222960;33;33472;-91
2022/10/01 01:17:50;;;;;;;;;;;;;;;16.89;74.45;99438.03;4220993;33;34743;-91
2022/10/01 01:20:48;;;;;;;;;;;;;;;16.98;73.89;99439.38;4236477;33;36000;-91
2022/10/01 01:23:37;;;;;;;;;;;;;;;16.96;74.13;99436.84;4222283;33;34691;-92
2022/10/01 01:26:15;;;;;;;;;;;;;;;16.87;74.37;99433.78;4219569;33;34672;-91
2022/10/01 01:28:57;;;;;;;;;;;;;;;16.94;74.08;99436.06;4222236;33;34704;-91
2022/10/01 01:31:30;;;;;;;;;;;;;;;16.89;74.38;99447.63;4223673;33;34104;-91
2022/10/01 01:34:01;;;;;;;;;;;;;;;16.90;74.06;99441.50;4231079;33;35858;-91
2022/10/01 01:36:35;;;;;;;;;;;;;;;16.83;74.42;99451.38;4224890;33;34412;-91
2022/10/01 01:39:05;;;;;;;;;;;;;;;16.78;74.60;99443.72;4218914;33;35404;-91
2022/10/01 01:41:37;;;;;;;;;;;;;;;16.74;74.51;99443.88;4230080;33;34099;-91
2022/10/01 01:44:08;;;;;;;;;;;;;;;16.76;74.70;99448.12;4221903;33;35440;-91
2022/10/01 01:46:48;;;;;;;;;;;;;;;16.74;74.60;99449.12;4229617;33;32814;-92
2022/10/01 01:59:37;;;;;;;;;;;;;;;16.76;74.82;99418.47;4214540;33;34469;-92
2022/10/01 02:02:17;;;;;;;;;;;;;;;16.75;74.46;99408.94;4227670;33;35611;-91
2022/10/01 02:04:54;;;;;;;;;;;;;;;16.72;74.56;99414.28;4228497;33;35140;-92
2022/10/01 02:07:27;;;;;;;;;;;;;;;16.73;74.35;99408.13;4232523;33;33585;-90
2022/10/01 02:09:59;;;;;;;;;;;;;;;16.74;74.52;99401.97;4219428;33;33448;-90
2022/10/01 02:12:31;;;;;;;;;;;;;;;16.71;74.65;99383.75;4220836;33;34569;-91
2022/10/01 02:15:03;;;;;;;;;;;;;;;16.80;74.07;99391.25;4228319;33;35394;-91
2022/10/01 02:17:34;;;;;;;;;;;;;;;16.75;74.25;99401.91;4230822;33;33143;-90
2022/10/01 02:20:05;;;;;;;;;;;;;;;16.51;75.32;99410.81;4243020;33;32748;-90
2022/10/01 02:22:39;;;;;;;;;;;;;;;16.61;75.17;99420.81;4233938;33;35026;-90
2022/10/01 02:25:08;;;;;;;;;;;;;;;16.62;75.27;99422.53;4228296;33;36150;-90
2022/10/01 02:27:44;;;;;;;;;;;;;;;16.73;74.83;99429.09;4224948;33;34916;-90
2022/10/01 02:30:24;;;;;;;;;;;;;;;16.52;75.29;99423.81;4232252;33;33379;-90
2022/10/01 02:32:54;;;;;;;;;;;;;;;16.50;75.55;99414.34;4229794;33;34484;-90
2022/10/01 02:35:28;;;;;;;;;;;;;;;16.70;74.89;99413.50;4241518;33;34875;-90
2022/10/01 02:38:03;;;;;;;;;;;;;;;16.71;74.42;99430.91;4228492;33;34939;-90
2022/10/01 02:40:32;;;;;;;;;;;;;;;16.66;74.85;99422.41;4227089;33;33319;-90
2022/10/01 02:43:07;;;;;;;;;;;;;;;16.47;75.82;99425.78;4225194;33;32792;-91
2022/10/01 02:45:46;;;;;;;;;;;;;;;16.69;74.90;99436.22;4222036;33;34659;-90
2022/10/01 02:48:18;;;;;;;;;;;;;;;16.54;75.33;99424.63;4228610;33;35360;-91
2022/10/01 02:50:57;;;;;;;;;;;;;;;16.47;76.21;99425.78;4222500;33;33090;-91
2022/10/01 03:22:03;;;;;;;;;;;;;;;16.86;74.35;99419.81;4827241;28;19989;-92
2022/10/01 03:24:46;;;;;;;;;;;;;;;16.95;73.63;99429.87;4212584;33;34895;-91
2022/10/01 03:27:16;;;;;;;;;;;;;;;16.78;74.72;99454.19;4214561;33;33817;-91
2022/10/01 03:29:47;;;;;;;;;;;;;;;16.58;75.41;99456.78;4208474;33;33737;-90
2022/10/01 03:32:16;;;;;;;;;;;;;;;16.68;75.63;99470.34;4209422;34;35107;-90
2022/10/01 03:34:49;;;;;;;;;;;;;;;16.70;75.34;99477.22;4239754;33;35267;-91
2022/10/01 04:08:05;;;;;;;;;;;;;;;16.40;76.95;99416.47;3695879;28;20400;-91
2022/10/01 04:10:34;;;;;;;;;;;;;;;16.62;76.04;99427.78;4225678;33;35284;-90
2022/10/01 04:13:03;;;;;;;;;;;;;;;16.32;77.14;99423.81;4239697;33;33067;-89
2022/10/01 04:15:32;;;;;;;;;;;;;;;16.26;77.65;99419.69;4240286;33;34510;-89
2022/10/01 04:18:04;;;;;;;;;;;;;;;16.23;77.83;99419.78;4238135;33;34129;-90
2022/10/01 04:20:33;;;;;;;;;;;;;;;16.34;77.57;99424.59;4225920;33;32870;-89
2022/10/01 04:23:04;;;;;;;;;;;;;;;16.39;77.19;99417.41;4241529;33;33586;-89
2022/10/01 04:25:37;;;;;;;;;;;;;;;16.42;76.77;99425.12;4222863;33;35240;-88
2022/10/01 04:28:08;;;;;;;;;;;;;;;16.46;77.08;99418.84;4239559;33;34708;-89
2022/10/01 04:30:37;;;;;;;;;;;;;;;16.52;77.03;99415.97;4226431;33;34048;-90
2022/10/01 04:33:10;;;;;;;;;;;;;;;16.64;76.05;99422.47;4223323;33;33974;-90
2022/10/01 04:35:39;;;;;;;;;;;;;;;16.48;76.69;99434.47;4239449;33;33632;-90
2022/10/01 04:38:16;;;;;;;;;;;;;;;16.51;76.47;99423.91;4237780;33;34658;-91
2022/10/01 04:40:56;;;;;;;;;;;;;;;16.48;76.73;99419.66;4226833;33;34315;-91
2022/10/01 04:43:26;;;;;;;;;;;;;;;16.52;76.72;99421.19;4219473;33;33450;-90
2022/10/01 04:45:55;;;;;;;;;;;;;;;16.46;77.04;99423.25;4227502;33;35076;-89
2022/10/01 04:48:25;;;;;;;;;;;;;;;16.42;77.24;99423.34;4231534;33;34086;-91
2022/10/01 04:50:57;;;;;;;;;;;;;;;16.72;75.86;99429.97;4225291;33;34945;-89
2022/10/01 04:53:25;;;;;;;;;;;;;;;16.55;76.50;99430.69;4224663;33;34210;-89
2022/10/01 04:55:59;;;;;;;;;;;;;;;16.44;77.15;99425.91;4226082;33;34805;-90
2022/10/01 04:58:30;;;;;;;;;;;;;;;16.63;76.26;99434.72;4212227;33;35814;-89
2022/10/01 05:00:59;;;;;;;;;;;;;;;16.62;76.30;99434.75;4230224;33;34630;-90
2022/10/01 05:03:30;;;;;;;;;;;;;;;16.70;76.07;99437.09;4224845;33;33071;-89
2022/10/01 05:06:00;;;;;;;;;;;;;;;16.77;75.48;99434.12;4214591;33;33723;-89
2022/10/01 05:08:30;;;;;;;;;;;;;;;16.69;76.02;99449.31;4225158;33;34182;-89
2022/10/01 05:10:59;;;;;;;;;;;;;;;16.76;75.82;99465.63;4232072;33;34255;-90
2022/10/01 05:13:30;;;;;;;;;;;;;;;16.72;76.01;99485.00;4213578;33;33776;-89
2022/10/01 05:16:02;;;;;;;;;;;;;;;16.66;76.43;99493.13;4231693;33;34783;-89
2022/10/01 05:18:31;;;;;;;;;;;;;;;16.56;76.83;99475.16;4212769;33;34077;-88
2022/10/01 05:21:04;;;;;;;;;;;;;;;16.54;76.79;99479.59;4226713;33;34566;-90
2022/10/01 06:01:19;;;;;;;;;;;;;;;16.39;78.49;99444.44;4230208;33;20013;-90
2022/10/01 06:03:50;;;;;;;;;;;;;;;16.45;78.14;99432.00;4219290;33;34626;-90
2022/10/01 06:13:23;;;;;;;;;;;;;;;16.52;78.21;99415.97;4192375;34;34276;-92
2022/10/01 06:16:11;;;;;;;;;;;;;;;16.47;78.64;99411.84;4191408;33;36892;-91
2022/10/01 06:18:48;;;;;;;;;;;;;;;16.72;77.58;99398.56;4231432;33;34759;-89
2022/10/01 06:21:17;;;;;;;;;;;;;;;16.67;77.95;99393.50;4216889;33;34306;-89
2022/10/01 06:23:49;;;;;;;;;;;;;;;16.63;78.23;99397.19;4226665;33;33725;-88
2022/10/01 06:26:19;;;;;;;;;;;;;;;16.56;78.46;99398.37;4214268;33;34490;-88
2022/10/01 06:28:50;;;;;;;;;;;;;;;16.73;78.22;99426.47;4218673;33;34660;-89
2022/10/01 06:31:19;;;;;;;;;;;;;;;16.78;78.29;99443.72;4218586;33;34031;-89
2022/10/01 06:33:53;;;;;;;;;;;;;;;16.84;78.13;99455.69;4226346;33;33864;-89
2022/10/01 06:36:23;;;;;;;;;;;;;;;16.76;78.58;99447.28;4237579;33;33688;-89
2022/10/01 06:38:52;;;;;;;;;;;;;;;16.75;78.54;99442.97;4217666;33;33111;-88
2022/10/01 06:41:20;;;;;;;;;;;;;;;16.76;78.48;99436.81;4219831;33;34921;-89
2022/10/01 06:43:56;;;;;;;;;;;;;;;16.77;78.63;99441.16;4217779;33;31504;-88
2022/10/01 06:46:31;;;;;;;;;;;;;;;16.74;78.73;99442.09;4240601;33;33970;-88
2022/10/01 06:49:01;;;;;;;;;;;;;;;16.77;79.04;99446.38;4219047;33;35086;-88
2022/10/01 06:54:21;;;;;;;;;;;;;;;16.97;77.86;99451.63;4218389;33;32819;-88
2022/10/01 06:56:50;;;;;;;;;;;;;;;16.91;78.28;99457.12;4226577;33;34852;-88
2022/10/01 06:59:21;;;;;;;;;;;;;;;16.82;78.52;99447.91;4225046;33;33850;-89
2022/10/01 07:01:56;;;;;;;;;;;;;;;16.91;78.50;99445.81;4205223;33;35486;-88
2022/10/01 07:04:26;;;;;;;;;;;;;;;16.89;78.64;99442.41;4210863;33;33873;-89
2022/10/01 07:06:55;;;;;;;;;;;;;;;16.70;79.48;99439.72;4219554;33;33703;-87
2022/10/01 07:09:25;;;;;;;;;;;;;;;16.91;78.76;99435.31;4220746;33;34358;-89
2022/10/01 07:11:56;;;;;;;;;;;;;;;16.93;78.91;99436.13;4214818;33;33811;-89
2022/10/01 07:14:25;;;;;;;;;;;;;;;16.97;78.88;99421.97;4208050;33;34648;-89
2022/10/01 07:16:56;;;;;;;;;;;;;;;16.98;78.64;99429.75;4204101;33;34373;-88
2022/10/01 07:19:30;;;;;;;;;;;;;;;17.01;78.61;99415.66;4216912;33;34230;-88
2022/10/01 07:21:59;;;;;;;;;;;;;;;16.93;79.04;99415.16;4216518;33;33974;-88
2022/10/01 07:24:28;;;;;;;;;;;;;;;16.88;78.99;99423.22;4217322;33;32583;-88
2022/10/01 07:26:59;;;;;;;;;;;;;;;16.94;78.61;99424.72;4214061;33;33950;-87
2022/10/01 07:29:34;;;;;;;;;;;;;;;17.01;78.60;99423.53;4217596;33;34606;-88
2022/10/01 07:32:07;;;;;;;;;;;;;;;16.93;79.40;99420.41;4200665;34;34898;-88
2022/10/01 07:34:39;;;;;;;;;;;;;;;17.17;78.45;99415.84;4222633;33;32733;-88
2022/10/01 07:37:08;;;;;;;;;;;;;;;17.15;78.69;99410.66;4207286;34;34964;-88
2022/10/01 07:39:36;;;;;;;;;;;;;;;17.36;77.75;99400.97;4213393;33;34286;-88
2022/10/01 07:42:08;;;;;;;;;;;;;;;17.31;78.59;99395.09;4218885;33;34009;-88
2022/10/01 07:44:36;;;;;;;;;;;;;;;17.32;78.94;99404.66;4222879;33;34692;-88
2022/10/01 07:47:07;;;;;;;;;;;;;;;17.17;79.78;99410.59;4219025;33;34988;-88
2022/10/01 07:49:35;;;;;;;;;;;;;;;17.35;78.82;99411.53;4219095;33;33919;-88
2022/10/01 07:52:14;;;;;;;;;;;;;;;17.40;78.58;99410.41;4220334;33;34233;-88
2022/10/01 07:54:43;;;;;;;;;;;;;;;17.45;78.87;99416.31;4218390;33;36459;-88
2022/10/01 07:57:19;;;;;;;;;;;;;;;17.52;78.75;99409.00;4218438;33;35839;-88
2022/10/01 07:59:48;;;;;;;;;;;;;;;17.49;79.15;99412.63;4207741;33;34596;-88
2022/10/01 08:02:23;;;;;;;;;;;;;;;17.49;79.37;99412.63;4219800;33;34322;-88
2022/10/01 08:07:47;;;;;;;;;;;;;;;17.66;78.30;99417.09;4220624;33;34179;-87
2022/10/01 08:10:23;;;;;;;;;;;;;;;17.55;79.67;99405.38;4216148;33;34629;-87
2022/10/01 08:12:51;;;;;;;;;;;;;;;17.71;78.61;99403.75;4219808;33;34954;-87
2022/10/01 08:15:21;;;;;;;;;;;;;;;17.79;79.01;99411.25;4218311;33;31200;-87
2022/10/01 08:17:49;;;;;;;;;;;;;;;17.88;79.05;99409.09;4223177;33;31859;-87
2022/10/01 08:20:20;;;;;;;;;;;;;;;17.95;79.11;99399.13;4212984;33;34437;-87
2022/10/01 08:22:50;;;;;;;;;;;;;;;18.05;78.43;99403.03;4217788;33;34651;-86
2022/10/01 08:25:24;;;;;;;;;;;;;;;17.83;79.39;99416.31;4221591;33;33028;-86
2022/10/01 08:27:53;;;;;;;;;;;;;;;18.07;78.06;99406.44;4222437;33;34069;-86
2022/10/01 08:30:28;;;;;;;;;;;;;;;18.07;78.45;99395.06;4211615;33;35316;-86
2022/10/01 08:32:56;;;;;;;;;;;;;;;18.07;78.09;99387.19;4215636;33;32340;-86
2022/10/01 08:35:27;;;;;;;;;;;;;;;17.93;78.19;99380.00;4217784;33;32529;-87
2022/10/01 08:38:04;;;;;;;;;;;;;;;18.04;78.06;99376.84;4216205;33;34612;-87
2022/10/01 08:40:35;;;;;;;;;;;;;;;18.21;77.55;99378.63;4218601;33;33481;-88
2022/10/01 08:43:11;;;;;;;;;;;;;;;18.26;77.46;99374.00;4224947;33;33893;-88
2022/10/01 08:45:41;;;;;;;;;;;;;;;18.32;77.35;99368.47;4220143;33;32238;-87
2022/10/01 08:48:15;;;;;;;;;;;;;;;18.22;77.45;99368.06;4223054;33;34284;-87
2022/10/01 08:50:45;;;;;;;;;;;;;;;18.19;78.03;99368.19;4223169;33;35703;-87
2022/10/01 08:53:25;;;;;;;;;;;;;;;18.37;77.45;99355.94;4221727;33;34426;-87
2022/10/01 08:55:54;;;;;;;;;;;;;;;18.20;78.25;99364.66;4223652;33;32980;-87
2022/10/01 08:58:23;;;;;;;;;;;;;;;18.41;77.20;99368.00;4218149;33;33845;-88
2022/10/01 09:00:52;;;;;;;;;;;;;;;18.42;77.34;99368.84;4224110;33;34239;-88
2022/10/01 09:03:25;;;;;;;;;;;;;;;18.53;76.53;99366.50;4204879;34;35830;-87
2022/10/01 09:06:03;;;;;;;;;;;;;;;18.41;77.32;99362.75;4222110;33;32794;-87
2022/10/01 09:08:43;;;;;;;;;;;;;;;18.49;77.28;99368.44;4218301;33;34466;-88
2022/10/01 09:11:16;;;;;;;;;;;;;;;18.53;77.17;99367.38;4213493;33;34784;-86
2022/10/01 09:13:56;;;;;;;;;;;;;;;18.68;76.88;99367.50;4220938;33;34053;-88
2022/10/01 09:16:28;;;;;;;;;;;;;;;18.66;76.68;99366.75;4218504;33;33524;-87
2022/10/01 09:19:05;;;;;;;;;;;;;;;18.45;77.26;99368.69;4221210;33;34785;-87
2022/10/01 09:21:38;;;;;;;;;;;;;;;18.63;77.51;99362.50;4228844;33;32212;-86
2022/10/01 09:24:10;;;;;;;;;;;;;;;18.93;77.02;99369.72;4202765;33;34688;-87
2022/10/01 09:26:38;;;;;;;;;;;;;;;19.10;76.78;99355.69;4207778;33;31680;-87
2022/10/01 09:29:09;;;;;;;;;;;;;;;19.22;77.14;99362.06;4223437;33;33859;-87
2022/10/01 09:31:37;;;;;;;;;;;;;;;19.33;76.96;99346.53;4224487;33;34750;-87
2022/10/01 09:34:11;;;;;;;;;;;;;;;19.52;75.86;99347.25;4219908;33;34792;-87
2022/10/01 09:39:42;;;;;;;;;;;;;;;19.47;75.79;99349.25;4218034;33;34086;-87
2022/10/01 09:42:10;;;;;;;;;;;;;;;19.68;75.54;99351.69;4213170;33;32786;-88
2022/10/01 09:44:39;;;;;;;;;;;;;;;19.80;75.13;99351.84;4220576;33;33700;-87
2022/10/01 09:47:13;;;;;;;;;;;;;;;19.80;75.28;99351.84;4219710;33;33797;-87
2022/10/01 09:49:49;;;;;;;;;;;;;;;19.93;74.87;99351.13;4219756;33;34622;-87
2022/10/01 09:52:18;;;;;;;;;;;;;;;20.00;74.22;99355.94;4218602;33;33865;-88
2022/10/01 09:54:49;;;;;;;;;;;;;;;20.17;74.27;99357.62;4218605;33;33746;-89
2022/10/01 09:57:22;;;;;;;;;;;;;;;20.14;72.23;99343.78;4220839;33;32444;-88
2022/10/01 09:59:53;;;;;;;;;;;;;;;20.16;72.95;99328.75;4217444;33;34507;-88
2022/10/01 10:02:25;;;;;;;;;;;;;;;20.23;72.71;99338.00;4226419;33;34119;-88
2022/10/01 10:05:09;;;;;;;;;;;;;;;20.18;71.56;99334.78;4212924;33;34711;-87
2022/10/01 10:07:41;;;;;;;;;;;;;;;20.16;71.72;99331.37;4207632;34;33517;-88
2022/10/01 10:10:20;;;;;;;;;;;;;;;20.11;72.07;99323.75;4214141;33;32100;-87
2022/10/01 10:12:57;;;;;;;;;;;;;;;20.22;71.55;99325.75;4224710;33;33977;-87
2022/10/01 10:15:26;;;;;;;;;;;;;;;20.36;71.01;99319.66;4217855;33;34746;-86
2022/10/01 10:17:58;;;;;;;;;;;;;;;20.24;71.65;99323.88;4214723;33;33388;-88
2022/10/01 10:20:29;;;;;;;;;;;;;;;20.49;70.82;99325.91;4220914;33;34068;-87
2022/10/01 10:23:09;;;;;;;;;;;;;;;20.50;69.73;99326.75;4206774;33;31764;-87
2022/10/01 10:26:01;;;;;;;;;;;;;;;20.70;70.25;99322.94;4212909;33;33977;-87
2022/10/01 10:28:38;;;;;;;;;;;;;;;20.75;71.17;99313.81;4216632;33;33243;-86
2022/10/01 10:31:13;;;;;;;;;;;;;;;20.91;70.34;99311.09;4222365;33;33653;-87
2022/10/01 10:33:50;;;;;;;;;;;;;;;20.81;70.17;99305.53;4218262;33;34319;-86
2022/10/01 10:36:28;;;;;;;;;;;;;;;20.99;69.21;99306.16;4213689;33;34477;-87
2022/10/01 10:38:56;;;;;;;;;;;;;;;20.97;69.46;99300.16;4222939;33;32683;-87
2022/10/01 10:41:26;;;;;;;;;;;;;;;21.10;68.18;99302.88;4221749;33;34360;-87
2022/10/01 10:43:57;;;;;;;;;;;;;;;20.93;69.55;99298.66;4211974;33;33641;-86
2022/10/01 10:46:29;;;;;;;;;;;;;;;20.94;69.94;99302.13;4211470;33;34413;-87
2022/10/01 10:49:11;;;;;;;;;;;;;;;20.96;68.19;99293.19;4217847;33;33663;-87
2022/10/01 10:51:43;;;;;;;;;;;;;;;20.95;68.16;99293.25;4216219;33;33644;-86
2022/10/01 10:54:21;;;;;;;;;;;;;;;21.01;66.90;99288.47;4210700;33;34254;-86
2022/10/01 10:56:54;;;;;;;;;;;;;;;20.71;69.18;99282.44;4210606;33;33728;-86
2022/10/01 10:59:24;;;;;;;;;;;;;;;20.78;69.46;99279.38;4211163;33;33327;-86
2022/10/01 11:01:53;;;;;;;;;;;;;;;20.69;68.93;99268.53;4217475;33;32751;-86
2022/10/01 11:04:24;;;;;;;;;;;;;;;20.62;69.21;99263.63;4212579;33;35049;-86
2022/10/01 11:06:54;;;;;;;;;;;;;;;20.65;69.77;99262.59;4215343;33;34086;-86
2022/10/01 11:09:22;;;;;;;;;;;;;;;20.82;68.46;99266.81;4214359;33;33916;-86
2022/10/01 11:11:56;;;;;;;;;;;;;;;20.77;69.68;99259.19;4198606;33;34730;-86
2022/10/01 11:14:51;;;;;;;;;;;;;;;20.79;69.35;99252.03;4231226;33;34014;-86
2022/10/01 11:17:29;;;;;;;;;;;;;;;20.87;69.19;99244.50;4217049;33;33939;-87
2022/10/01 11:20:15;;;;;;;;;;;;;;;21.07;69.08;99239.78;4200908;33;34196;-86
2022/10/01 11:22:52;;;;;;;;;;;;;;;21.24;69.70;99229.00;4219999;33;34270;-86
2022/10/01 11:25:27;;;;;;;;;;;;;;;21.41;68.73;99222.66;4221719;33;34240;-86
2022/10/01 11:27:57;;;;;;;;;;;;;;;21.54;67.58;99224.47;4220184;33;33832;-85
2022/10/01 11:30:32;;;;;;;;;;;;;;;21.50;68.82;99216.78;4232015;33;32584;-86
2022/10/01 11:33:03;;;;;;;;;;;;;;;21.69;68.13;99215.53;4218973;33;33868;-86
2022/10/01 11:35:43;;;;;;;;;;;;;;;21.66;67.53;99211.31;4207425;33;33307;-86
2022/10/01 11:38:24;;;;;;;;;;;;;;;21.77;67.92;99197.41;4214731;33;34771;-86
2022/10/01 11:40:54;;;;;;;;;;;;;;;21.62;67.77;99199.25;4222256;33;33353;-87
2022/10/01 11:43:23;;;;;;;;;;;;;;;21.78;67.78;99198.25;4217078;33;33540;-86
2022/10/01 11:45:57;;;;;;;;;;;;;;;21.68;66.67;99190.94;4216645;33;34622;-86
2022/10/01 11:48:26;;;;;;;;;;;;;;;21.46;68.07;99183.59;4199099;33;859060;-86
2022/10/01 11:51:00;;;;;;;;;;;;;;;21.64;68.05;99181.53;4213871;33;34072;-86
2022/10/01 11:53:32;;;;;;;;;;;;;;;21.70;67.04;99177.63;4199693;34;34657;-87
2022/10/01 11:58:57;;;;;;;;;;;;;;;21.65;65.84;99177.94;4217485;33;33761;-87
2022/10/01 12:01:35;;;;;;;;;;;;;;;21.69;67.06;99173.28;4222946;33;33333;-86
2022/10/01 12:04:06;;;;;;;;;;;;;;;21.49;66.86;99164.91;4215391;33;33989;-87
2022/10/01 12:06:36;;;;;;;;;;;;;;;21.68;66.45;99172.44;4218133;33;34732;-86
2022/10/01 12:09:07;;;;;;;;;;;;;;;21.67;66.95;99170.78;4224809;33;34944;-86
2022/10/01 12:11:36;;;;;;;;;;;;;;;21.94;66.70;99167.22;4220364;33;33668;-86
2022/10/01 12:14:10;;;;;;;;;;;;;;;21.98;66.21;99171.31;4211816;33;34757;-86
2022/10/01 12:16:41;;;;;;;;;;;;;;;21.95;65.73;99159.16;4218779;33;34305;-86
2022/10/01 12:19:12;;;;;;;;;;;;;;;22.12;65.75;99165.94;4223776;33;34015;-86
2022/10/01 12:21:41;;;;;;;;;;;;;;;22.08;65.29;99167.06;4221231;33;33769;-85
2022/10/01 12:24:11;;;;;;;;;;;;;;;22.11;64.28;99166.88;4219098;33;34862;-86
2022/10/01 12:26:42;;;;;;;;;;;;;;;21.95;64.56;99164.44;4212075;33;33362;-87
2022/10/01 12:29:13;;;;;;;;;;;;;;;21.91;65.36;99162.13;4215809;33;34081;-86
2022/10/01 12:31:44;;;;;;;;;;;;;;;21.87;65.31;99160.66;4217106;33;32078;-86
2022/10/01 12:34:15;;;;;;;;;;;;;;;21.65;65.84;99166.50;4211266;33;35448;-86
2022/10/01 12:36:45;;;;;;;;;;;;;;;21.70;64.47;99160.00;4212603;33;34393;-86
2022/10/01 12:39:17;;;;;;;;;;;;;;;21.64;64.83;99160.41;4201213;34;34516;-86
2022/10/01 12:41:49;;;;;;;;;;;;;;;21.47;65.30;99161.53;4212957;33;32785;-86
2022/10/01 12:44:26;;;;;;;;;;;;;;;21.37;65.87;99163.06;4224365;33;34742;-86
2022/10/01 12:47:02;;;;;;;;;;;;;;;21.44;64.59;99166.19;4210928;33;34574;-87
2022/10/01 12:49:31;;;;;;;;;;;;;;;21.45;65.29;99159.94;4217386;33;34840;-86
2022/10/01 12:52:01;;;;;;;;;;;;;;;21.45;64.87;99152.03;4217886;33;33397;-86
2022/10/01 12:54:51;;;;;;;;;;;;;;;21.56;65.72;99135.50;4221486;33;33534;-87
2022/10/01 12:57:27;;;;;;;;;;;;;;;21.42;65.76;99128.50;4180351;34;34172;-87
2022/10/01 13:00:00;;;;;;;;;;;;;;;21.66;65.35;99120.72;4181968;34;36246;-87
2022/10/01 13:02:42;;;;;;;;;;;;;;;21.79;63.31;99112.78;4176394;34;34072;-86
2022/10/01 13:05:19;;;;;;;;;;;;;;;21.58;65.09;99117.75;4172791;34;33691;-87
2022/10/01 13:07:55;;;;;;;;;;;;;;;21.64;64.87;99110.25;4174783;34;33887;-87
2022/10/01 13:10:41;;;;;;;;;;;;;;;21.81;65.70;99105.62;4168604;34;34286;-86
2022/10/01 13:13:12;;;;;;;;;;;;;;;21.89;65.77;99095.34;4167752;34;32110;-87
2022/10/01 13:15:48;;;;;;;;;;;;;;;22.02;65.73;99100.66;4175986;34;34430;-87
2022/10/01 13:18:21;;;;;;;;;;;;;;;21.99;65.51;99096.44;4176299;34;33878;-87
2022/10/01 13:20:54;;;;;;;;;;;;;;;22.13;62.96;99079.59;4180478;34;34448;-87
2022/10/01 13:23:24;;;;;;;;;;;;;;;22.14;63.56;99076.84;4180773;34;33251;-87
2022/10/01 13:25:57;;;;;;;;;;;;;;;22.22;62.14;99084.25;4168268;34;34289;-87
2022/10/01 13:28:43;;;;;;;;;;;;;;;22.17;63.72;99079.25;4176885;34;34289;-88
2022/10/01 13:31:13;;;;;;;;;;;;;;;22.11;63.57;99069.16;4181794;34;33203;-87
2022/10/01 13:33:53;;;;;;;;;;;;;;;22.20;63.94;99066.78;4180380;33;34104;-87
2022/10/01 13:36:28;;;;;;;;;;;;;;;22.21;63.93;99052.69;4208848;33;34178;-87
2022/10/01 13:38:56;;;;;;;;;;;;;;;21.97;64.12;99042.84;4227261;33;34866;-87
2022/10/01 13:41:25;;;;;;;;;;;;;;;22.09;64.54;99055.19;4219524;33;31825;-88
2022/10/01 13:43:58;;;;;;;;;;;;;;;22.17;63.45;99084.53;4204361;33;33191;-89
2022/10/01 13:49:58;;;;;;;;;;;;;;;20.62;71.65;99076.50;4220731;33;35518;-89
2022/10/01 13:52:26;;;;;;;;;;;;;;;20.32;74.01;99074.03;4219605;33;33943;-88
2022/10/01 13:54:55;;;;;;;;;;;;;;;20.06;76.74;99070.38;4225943;33;33894;-88
2022/10/01 13:57:33;;;;;;;;;;;;;;;20.24;76.96;99073.66;4205404;33;31732;-87
2022/10/01 14:00:02;;;;;;;;;;;;;;;20.10;77.01;99061.34;4221997;33;33889;-88
2022/10/01 14:02:36;;;;;;;;;;;;;;;19.92;76.60;99049.34;4216512;33;34705;-87
2022/10/01 14:05:29;;;;;;;;;;;;;;;20.04;75.63;99054.66;4222672;33;33807;-87
2022/10/01 14:07:59;;;;;;;;;;;;;;;19.70;76.81;99055.06;4226615;33;33107;-86
2022/10/01 14:10:31;;;;;;;;;;;;;;;19.63;75.91;99062.44;4209306;33;34095;-86
2022/10/01 14:16:02;;;;;;;;;;;;;;;19.82;75.76;99068.31;4219221;33;34022;-87
2022/10/01 14:18:35;;;;;;;;;;;;;;;19.59;76.42;99069.66;4223192;33;34120;-86
2022/10/01 14:21:08;;;;;;;;;;;;;;;19.95;74.18;99067.56;4224629;33;34275;-86
2022/10/01 14:23:42;;;;;;;;;;;;;;;19.79;75.85;99059.78;4221410;33;33906;-86
2022/10/01 14:26:17;;;;;;;;;;;;;;;19.93;76.11;99067.66;4220980;33;32608;-86
2022/10/01 14:28:48;;;;;;;;;;;;;;;20.11;74.82;99065.69;4219856;33;35055;-86
2022/10/01 14:31:19;;;;;;;;;;;;;;;20.06;74.43;99061.66;4217889;33;34728;-86
2022/10/01 14:34:09;;;;;;;;;;;;;;;20.12;73.18;99064.72;4228069;33;33758;-86
2022/10/01 14:36:47;;;;;;;;;;;;;;;19.88;74.57;99059.19;4204140;33;33040;-86
2022/10/01 14:39:16;;;;;;;;;;;;;;;19.83;73.22;99056.84;4224460;33;34735;-86
2022/10/01 14:41:45;;;;;;;;;;;;;;;19.54;75.10;99050.69;4219554;33;34762;-86
2022/10/01 14:44:27;;;;;;;;;;;;;;;19.88;74.60;99047.81;4219397;33;33593;-86
2022/10/01 14:46:56;;;;;;;;;;;;;;;19.82;74.85;99049.91;4221903;33;33952;-86
2022/10/01 14:49:25;;;;;;;;;;;;;;;19.98;73.21;99051.56;4222127;33;34575;-86
2022/10/01 14:51:58;;;;;;;;;;;;;;;19.78;72.75;99051.00;4218371;33;33536;-87
2022/10/01 14:54:39;;;;;;;;;;;;;;;19.40;74.33;99048.03;4217579;33;33606;-87
2022/10/01 14:57:16;;;;;;;;;;;;;;;19.41;74.06;99039.22;4217624;33;33319;-86
2022/10/01 14:59:45;;;;;;;;;;;;;;;19.50;73.72;99045.69;4213211;33;34979;-86
2022/10/01 15:02:17;;;;;;;;;;;;;;;19.27;75.29;99052.34;4206357;33;34533;-86
2022/10/01 15:04:46;;;;;;;;;;;;;;;19.24;75.86;99045.50;4219005;33;33937;-86
2022/10/01 15:07:16;;;;;;;;;;;;;;;19.32;75.50;99059.00;4217836;33;32901;-87
2022/10/01 15:09:45;;;;;;;;;;;;;;;19.16;74.64;99058.22;4204514;33;33955;-86
2022/10/01 15:12:17;;;;;;;;;;;;;;;18.99;74.81;99064.47;4223486;33;34604;-87
2022/10/01 15:14:45;;;;;;;;;;;;;;;18.71;75.33;99066.03;4223849;33;33805;-86
2022/10/01 15:17:21;;;;;;;;;;;;;;;18.47;77.19;99073.50;4217553;33;34059;-87
2022/10/01 15:19:51;;;;;;;;;;;;;;;18.54;76.98;99068.75;4224906;33;34661;-87
2022/10/01 15:22:24;;;;;;;;;;;;;;;18.61;76.05;99071.87;4211290;33;34861;-87
2022/10/01 15:24:55;;;;;;;;;;;;;;;18.46;75.86;99076.19;4211105;33;35160;-86
2022/10/01 15:27:33;;;;;;;;;;;;;;;18.26;77.14;99080.75;4205680;33;33181;-86
2022/10/01 15:30:05;;;;;;;;;;;;;;;17.97;77.57;99073.63;4202017;33;34050;-86
2022/10/01 15:32:33;;;;;;;;;;;;;;;18.00;77.57;99076.94;4222006;33;33723;-86